Time;durP1;ratioP1;P1;durP2;ratioP2;P2;SDS_P1;SDS_P2;PMS_P1;PMS_P2;Temp;Humidity;BMP_temperature;BMP_pressure;BME280_temperature;BME280_humidity;BME280_pressure;Samples;Min_cycle;Max_cycle;Signal;HPM_P1;HPM_P2
2022/08/08 00:00:06;;;;;;;1.13;0.70;;;;;;;29.92;40.96;99162.38;5088677;28;20071;-58
2022/08/08 00:02:53;;;;;;;1.35;0.63;;;;;;;29.92;40.71;99162.38;5088595;28;20083;-58
2022/08/08 00:05:27;;;;;;;0.60;0.60;;;;;;;29.91;40.70;99160.00;5088631;28;20056;-59
2022/08/08 00:08:00;;;;;;;0.93;0.70;;;;;;;29.92;41.04;99156.75;5088453;28;20519;-58
2022/08/08 00:10:38;;;;;;;1.13;0.73;;;;;;;29.90;40.91;99158.44;5086979;28;20048;-57
2022/08/08 00:13:21;;;;;;;1.13;0.82;;;;;;;29.93;40.74;99163.16;5090702;28;20104;-58
2022/08/08 00:15:56;;;;;;;0.70;0.60;;;;;;;29.92;40.76;99155.94;5091172;28;20097;-58
2022/08/08 00:18:38;;;;;;;1.17;0.88;;;;;;;29.92;40.97;99162.38;5092084;28;20048;-59
2022/08/08 00:21:05;;;;;;;1.33;0.80;;;;;;;29.94;40.83;99161.97;5091005;28;20052;-58
2022/08/08 00:23:49;;;;;;;1.02;0.80;;;;;;;29.92;40.71;99162.38;5091800;28;20044;-59
2022/08/08 00:26:26;;;;;;;1.25;0.80;;;;;;;29.92;40.88;99161.59;5090366;28;20396;-58
2022/08/08 00:28:58;;;;;;;0.80;0.70;;;;;;;29.93;41.17;99157.53;5089330;28;20086;-58
2022/08/08 00:31:31;;;;;;;1.08;0.70;;;;;;;29.91;40.88;99155.16;5091584;28;20105;-58
2022/08/08 00:37:31;;;;;;;1.60;0.90;;;;;;;29.92;40.76;99162.38;5091350;28;20140;-57
2022/08/08 00:40:15;;;;;;;1.20;0.80;;;;;;;29.93;41.07;99166.78;5091329;28;20059;-59
2022/08/08 00:43:10;;;;;;;1.20;0.70;;;;;;;29.92;40.98;99165.19;5073251;28;20125;-59
2022/08/08 00:45:59;;;;;;;1.55;0.85;;;;;;;29.92;40.65;99159.56;5091629;28;20498;-58
2022/08/08 00:48:34;;;;;;;1.17;0.75;;;;;;;29.93;41.05;99152.69;5091367;28;20102;-58
2022/08/08 00:51:08;;;;;;;0.90;0.70;;;;;;;29.91;41.09;99157.19;5091498;28;20082;-58
2022/08/08 00:54:11;;;;;;;1.02;0.80;;;;;;;29.91;40.76;99155.16;5091332;28;20036;-58
2022/08/08 00:56:54;;;;;;;1.17;0.77;;;;;;;29.92;40.91;99156.75;5091041;28;20450;-59
2022/08/08 00:59:53;;;;;;;1.20;0.80;;;;;;;29.90;40.81;99147.94;5091092;28;20044;-59
2022/08/08 01:02:59;;;;;;;1.13;0.80;;;;;;;29.92;41.05;99155.94;5089802;28;20048;-59
2022/08/08 01:05:34;;;;;;;1.40;0.80;;;;;;;29.92;41.15;99155.94;5090285;28;20063;-58
2022/08/08 01:08:14;;;;;;;0.98;0.77;;;;;;;29.90;40.77;99153.59;5091051;28;20066;-58
2022/08/08 01:11:04;;;;;;;1.20;0.77;;;;;;;29.90;41.08;99159.22;5090880;28;20637;-59
2022/08/08 01:14:07;;;;;;;1.08;0.70;;;;;;;29.91;40.74;99160.00;5090810;28;20515;-58
2022/08/08 01:17:07;;;;;;;1.05;0.70;;;;;;;29.90;41.07;99153.59;5089400;28;20052;-59
2022/08/08 01:20:00;;;;;;;2.78;0.90;;;;;;;29.90;41.16;99147.16;5090820;28;20043;-58
2022/08/08 01:23:04;;;;;;;1.00;0.70;;;;;;;29.89;41.12;99146.38;5090595;28;21655;-58
2022/08/08 01:25:53;;;;;;;1.10;0.80;;;;;;;29.89;41.13;99146.38;5090204;28;20051;-59
2022/08/08 01:28:50;;;;;;;2.88;0.73;;;;;;;29.90;41.23;99155.63;5090842;28;20056;-58
2022/08/08 01:31:52;;;;;;;0.88;0.63;;;;;;;29.88;40.76;99153.25;5090764;28;20052;-58
2022/08/08 01:34:28;;;;;;;1.35;0.80;;;;;;;29.90;41.22;99158.44;5090683;28;20404;-57
2022/08/08 01:37:31;;;;;;;1.30;0.73;;;;;;;29.88;41.20;99165.31;5090319;28;20040;-57
2022/08/08 01:40:15;;;;;;;;;;;;;;;29.95;40.65;99169.97;5089957;28;20152;-58
2022/08/08 01:42:49;;;;;;;1.13;0.80;;;;;;;29.92;40.76;99167.22;5090377;28;20322;-59
2022/08/08 01:45:35;;;;;;;1.08;0.65;;;;;;;29.90;40.80;99167.69;5090577;28;20047;-59
2022/08/08 01:48:16;;;;;;;0.75;0.60;;;;;;;29.87;40.78;99171.41;5090395;28;20515;-58
2022/08/08 01:51:00;;;;;;;0.93;0.80;;;;;;;29.89;40.94;99180.19;5090206;28;20415;-58
2022/08/08 01:54:01;;;;;;;1.75;0.90;;;;;;;29.90;41.16;99181.00;5090320;28;20044;-58
2022/08/08 01:56:45;;;;;;;1.13;0.68;;;;;;;29.88;40.83;99181.44;5089037;28;20102;-59
2022/08/08 01:59:41;;;;;;;1.02;0.70;;;;;;;29.89;40.75;99180.19;5090445;28;20044;-59
2022/08/08 02:02:30;;;;;;;1.33;0.90;;;;;;;29.90;41.08;99181.78;5090192;28;20043;-57
2022/08/08 02:05:01;;;;;;;1.10;0.90;;;;;;;29.90;41.16;99187.41;5090112;28;20055;-57
2022/08/08 02:07:53;;;;;;;1.02;0.80;;;;;;;29.88;41.13;99179.41;5089936;28;20044;-58
2022/08/08 02:10:59;;;;;;;1.15;0.70;;;;;;;29.91;40.82;99182.56;5089759;28;20040;-58
2022/08/08 02:13:33;;;;;;;1.00;0.80;;;;;;;29.89;41.01;99183.03;5088563;28;20067;-59
2022/08/08 02:16:12;;;;;;;1.00;0.70;;;;;;;29.91;40.81;99182.56;5090213;28;20040;-59
2022/08/08 02:19:02;;;;;;;1.08;0.80;;;;;;;29.91;40.67;99188.22;5087893;28;20415;-57
2022/08/08 02:24:55;;;;;;;1.70;0.70;;;;;;;29.91;40.83;99188.22;5088837;28;20046;-59
2022/08/08 02:27:28;;;;;;;1.35;0.80;;;;;;;29.92;41.17;99195.44;5089596;28;20040;-59
2022/08/08 02:30:08;;;;;;;1.40;0.90;;;;;;;29.91;40.74;99196.66;5089762;28;20040;-59
2022/08/08 02:32:55;;;;;;;1.08;0.70;;;;;;;29.91;40.85;99194.66;5089725;28;20619;-59
2022/08/08 02:35:26;;;;;;;1.00;0.80;;;;;;;29.93;40.87;99199.84;5089404;28;20048;-59
2022/08/08 02:38:15;;;;;;;1.20;0.80;;;;;;;29.90;40.98;99193.06;5089883;28;20048;-59
2022/08/08 02:40:59;;;;;;;3.13;0.80;;;;;;;29.94;40.99;99192.97;5076999;28;20499;-58
2022/08/08 02:43:39;;;;;;;0.90;0.70;;;;;;;29.94;40.65;99199.41;5089586;28;20044;-59
2022/08/08 02:46:23;;;;;;;0.70;0.60;;;;;;;29.95;40.65;99203.03;5088681;28;20044;-59
2022/08/08 02:49:27;;;;;;;1.15;0.70;;;;;;;29.93;41.04;99197.81;5089377;28;20504;-57
2022/08/08 02:52:12;;;;;;;0.75;0.70;;;;;;;29.94;40.50;99198.63;5089069;28;20109;-59
2022/08/08 02:54:52;;;;;;;0.98;0.60;;;;;;;29.95;40.68;99203.81;5089382;28;20040;-59
2022/08/08 02:57:29;;;;;;;0.95;0.63;;;;;;;29.94;40.68;99207.88;5089593;28;20109;-59
2022/08/08 03:00:00;;;;;;;1.23;0.80;;;;;;;29.95;41.02;99200.22;5089313;28;20416;-57
2022/08/08 03:02:50;;;;;;;1.13;0.70;;;;;;;29.96;40.72;99207.44;5089139;28;20108;-58
2022/08/08 03:05:47;;;;;;;1.17;0.77;;;;;;;29.96;40.97;99205.41;5089121;28;20473;-58
2022/08/08 03:08:31;;;;;;;1.13;0.60;;;;;;;29.97;40.93;99204.16;5087175;28;20048;-58
2022/08/08 03:11:24;;;;;;;0.98;0.65;;;;;;;29.97;40.99;99206.97;5089152;28;20523;-58
2022/08/08 03:14:14;;;;;;;1.08;0.70;;;;;;;29.97;40.51;99206.97;5089226;28;20044;-59
2022/08/08 03:17:07;;;;;;;1.10;0.70;;;;;;;29.98;40.83;99204.94;5089083;28;20095;-59
2022/08/08 03:19:43;;;;;;;;;;;;;;;30.03;40.83;99202.38;5069948;28;20553;-58
2022/08/08 03:22:08;;;;;;;1.73;0.80;;;;;;;30.02;40.70;99205.66;5070589;28;19923;-59
2022/08/08 03:24:34;;;;;;;0.70;0.50;;;;;;;29.95;40.68;99195.34;5089125;28;20044;-59
2022/08/08 03:27:15;;;;;;;1.02;0.75;;;;;;;29.99;40.83;99212.97;5088907;28;20101;-59
2022/08/08 03:29:45;;;;;;;0.93;0.70;;;;;;;29.99;40.83;99210.13;5088837;28;20430;-59
2022/08/08 03:34:55;;;;;;;1.60;0.80;;;;;;;29.97;40.78;99215.44;5088890;28;20428;-58
2022/08/08 03:37:21;;;;;;;0.90;0.60;;;;;;;29.98;40.68;99208.56;5089002;28;20043;-57
2022/08/08 03:39:46;;;;;;;0.82;0.70;;;;;;;29.97;40.49;99217.47;5086877;28;20127;-58
2022/08/08 03:42:16;;;;;;;0.77;0.60;;;;;;;29.97;40.67;99215.44;5088729;28;20052;-58
2022/08/08 03:44:42;;;;;;;0.88;0.70;;;;;;;30.00;40.41;99220.19;5088896;28;20119;-58
2022/08/08 03:47:08;;;;;;;0.85;0.60;;;;;;;29.99;40.50;99224.25;5089714;28;20082;-58
2022/08/08 03:49:34;;;;;;;0.98;0.70;;;;;;;30.01;40.80;99226.63;5092349;28;20515;-57
2022/08/08 03:51:59;;;;;;;1.20;0.80;;;;;;;30.01;40.70;99221.00;5092257;28;20048;-58
2022/08/08 03:54:25;;;;;;;0.85;0.60;;;;;;;30.01;40.37;99238.72;5092234;28;20078;-58
2022/08/08 03:56:51;;;;;;;0.80;0.60;;;;;;;30.01;40.37;99230.25;5092213;28;20085;-58
2022/08/08 03:59:17;;;;;;;0.90;0.70;;;;;;;30.00;40.51;99239.94;5092027;28;20194;-59
2022/08/08 04:01:43;;;;;;;1.05;0.70;;;;;;;30.01;40.79;99238.72;5091925;28;20135;-59
2022/08/08 04:04:09;;;;;;;0.90;0.80;;;;;;;30.00;40.46;99241.94;5092202;28;20047;-58
2022/08/08 04:06:34;;;;;;;0.70;0.60;;;;;;;29.99;40.54;99234.72;5091925;28;20036;-58
2022/08/08 04:09:03;;;;;;;1.88;0.90;;;;;;;30.02;40.46;99242.31;5091909;28;20051;-59
2022/08/08 04:11:30;;;;;;;1.08;0.80;;;;;;;29.99;40.58;99235.53;5091897;28;20043;-57
2022/08/08 04:13:55;;;;;;;0.85;0.60;;;;;;;30.01;40.28;99244.34;5091931;28;20127;-58
2022/08/08 04:16:21;;;;;;;1.10;0.80;;;;;;;30.01;40.30;99240.75;5091706;28;20122;-59
2022/08/08 04:18:47;;;;;;;0.95;0.70;;;;;;;30.03;40.77;99249.53;5091703;28;20052;-57
2022/08/08 04:21:14;;;;;;;0.77;0.60;;;;;;;30.00;40.49;99245.56;5091594;28;20522;-58
2022/08/08 04:23:39;;;;;;;1.38;0.70;;;;;;;30.02;40.65;99248.75;5091642;28;20052;-58
2022/08/08 04:26:05;;;;;;;0.93;0.80;;;;;;;30.02;40.44;99250.78;5091939;28;20051;-58
2022/08/08 04:28:32;;;;;;;0.98;0.70;;;;;;;30.01;40.39;99249.22;5091642;28;20043;-58
2022/08/08 04:30:57;;;;;;;1.00;0.60;;;;;;;30.01;40.25;99257.66;5091578;28;20048;-59
2022/08/08 04:33:23;;;;;;;1.08;0.60;;;;;;;30.03;40.25;99260.84;5091322;28;20055;-58
2022/08/08 04:35:48;;;;;;;0.93;0.70;;;;;;;30.03;40.37;99267.25;5091439;28;20205;-58
2022/08/08 04:38:14;;;;;;;1.00;0.70;;;;;;;30.01;40.26;99261.28;5091576;28;20036;-58
2022/08/08 04:40:39;;;;;;;1.23;0.50;;;;;;;30.03;40.22;99264.44;5091449;28;20491;-57
2022/08/08 04:43:04;;;;;;;0.82;0.63;;;;;;;30.02;40.47;99268.50;5091488;28;20138;-57
2022/08/08 04:45:31;;;;;;;0.93;0.70;;;;;;;30.02;40.67;99268.50;5091519;28;20044;-58
2022/08/08 04:47:58;;;;;;;0.80;0.70;;;;;;;30.03;40.16;99270.09;5091653;28;20106;-59
2022/08/08 04:50:25;;;;;;;1.08;0.70;;;;;;;29.99;40.77;99266.53;5091126;28;20135;-58
2022/08/08 04:52:51;;;;;;;0.85;0.60;;;;;;;30.02;40.31;99271.31;5091180;28;20554;-58
2022/08/08 04:55:17;;;;;;;1.30;0.90;;;;;;;29.99;40.10;99263.72;5091060;28;20047;-57
2022/08/08 04:57:42;;;;;;;3.55;0.70;;;;;;;30.01;40.49;99266.91;5091044;28;20067;-58
2022/08/08 05:00:08;;;;;;;0.60;0.60;;;;;;;30.02;40.70;99274.16;5090148;28;20055;-58
2022/08/08 05:02:34;;;;;;;0.55;0.50;;;;;;;30.04;40.14;99276.50;5090969;28;20040;-59
2022/08/08 05:05:00;;;;;;;0.90;0.65;;;;;;;30.03;40.50;99269.28;5091049;28;20040;-59
2022/08/08 05:07:26;;;;;;;1.00;0.70;;;;;;;30.03;40.25;99278.53;5090861;28;20048;-58
2022/08/08 05:09:51;;;;;;;0.82;0.68;;;;;;;30.00;40.40;99282.22;5091013;28;20109;-57
2022/08/08 05:12:17;;;;;;;1.13;0.77;;;;;;;30.04;40.71;99291.41;5090984;28;20040;-58
2022/08/08 05:14:43;;;;;;;1.02;0.82;;;;;;;30.04;40.59;99279.34;5091048;28;20047;-58
2022/08/08 05:17:09;;;;;;;0.93;0.73;;;;;;;30.03;40.32;99292.66;5090882;28;20055;-57
2022/08/08 05:19:36;;;;;;;1.05;0.68;;;;;;;30.03;40.10;99291.84;5090618;28;20044;-59
2022/08/08 05:22:03;;;;;;;1.00;0.73;;;;;;;30.03;40.23;99295.47;5090654;28;20048;-57
2022/08/08 05:24:29;;;;;;;0.60;0.60;;;;;;;30.03;40.70;99289.81;5089037;28;20132;-58
2022/08/08 05:26:54;;;;;;;1.17;0.77;;;;;;;30.01;40.30;99291.50;5090651;28;20131;-58
2022/08/08 05:29:20;;;;;;;0.85;0.63;;;;;;;30.04;40.25;99299.06;5090643;28;20059;-58
2022/08/08 05:31:45;;;;;;;1.02;0.73;;;;;;;30.03;40.47;99298.28;5090761;28;20123;-58
2022/08/08 05:34:24;;;;;;;1.45;0.70;;;;;;;30.03;40.55;99294.69;5090767;28;20059;-59
2022/08/08 05:36:51;;;;;;;0.70;0.52;;;;;;;30.03;40.27;99295.47;5090520;28;20043;-59
2022/08/08 05:39:20;;;;;;;1.45;0.70;;;;;;;30.03;40.14;99292.66;5090673;28;20048;-58
2022/08/08 05:41:49;;;;;;;1.10;0.60;;;;;;;30.03;40.13;99303.13;5090419;28;20118;-59
2022/08/08 05:44:19;;;;;;;0.73;0.70;;;;;;;30.02;40.16;99302.34;5090668;28;20114;-59
2022/08/08 05:46:46;;;;;;;0.80;0.60;;;;;;;30.04;40.47;99299.06;5088360;28;20055;-59
2022/08/08 05:49:13;;;;;;;1.30;0.73;;;;;;;30.04;40.55;99299.06;5090334;28;20048;-58
2022/08/08 05:51:39;;;;;;;1.20;0.80;;;;;;;30.04;40.50;99296.25;5090280;28;20503;-58
2022/08/08 05:54:06;;;;;;;0.60;0.50;;;;;;;30.01;40.56;99297.16;5090410;28;20047;-59
2022/08/08 05:56:37;;;;;;;0.73;0.60;;;;;;;30.02;40.51;99299.53;5090174;28;20048;-59
2022/08/08 05:59:05;;;;;;;1.23;0.68;;;;;;;30.03;40.52;99303.94;5090097;28;20044;-58
2022/08/08 06:01:32;;;;;;;1.88;0.90;;;;;;;30.03;40.48;99309.56;5090073;28;20044;-59
2022/08/08 06:04:02;;;;;;;1.17;0.75;;;;;;;29.84;39.82;99302.78;5090233;28;20085;-59
2022/08/08 06:06:29;;;;;;;0.75;0.60;;;;;;;29.69;39.84;99306.38;5090196;28;20428;-58
2022/08/08 06:09:02;;;;;;;1.00;0.63;;;;;;;29.55;40.99;99307.50;5089970;28;20048;-57
2022/08/08 06:11:31;;;;;;;1.25;0.80;;;;;;;29.37;41.71;99313.50;5089575;28;20519;-58
2022/08/08 06:13:56;;;;;;;1.35;0.85;;;;;;;29.23;42.11;99311.00;5089878;28;20036;-57
2022/08/08 06:16:22;;;;;;;0.70;0.60;;;;;;;29.15;41.87;99307.56;5089770;28;20050;-58
2022/08/08 06:18:50;;;;;;;0.95;0.70;;;;;;;29.13;41.87;99312.00;5089913;28;20063;-58
2022/08/08 06:21:15;;;;;;;1.15;0.75;;;;;;;29.04;41.22;99319.03;5089730;28;20519;-58
2022/08/08 06:23:41;;;;;;;0.75;0.60;;;;;;;29.04;41.11;99316.22;5089904;28;20082;-58
2022/08/08 06:26:09;;;;;;;1.30;0.80;;;;;;;28.97;42.11;99319.16;5089867;28;20047;-58
2022/08/08 06:29:01;;;;;;;0.80;0.70;;;;;;;28.89;42.69;99320.50;5089844;28;20040;-58
2022/08/08 06:31:32;;;;;;;0.70;0.63;;;;;;;28.79;42.68;99313.06;5089777;28;20050;-57
2022/08/08 06:34:17;;;;;;;0.93;0.73;;;;;;;28.81;42.52;99309.84;5089735;28;20048;-58
2022/08/08 06:36:44;;;;;;;1.20;0.80;;;;;;;28.84;41.50;99311.78;5089668;28;20496;-59
2022/08/08 06:39:13;;;;;;;0.90;0.70;;;;;;;28.84;41.45;99312.56;5089655;28;20040;-58
2022/08/08 06:42:01;;;;;;;1.00;0.70;;;;;;;28.83;42.57;99313.78;5089484;28;20056;-58
2022/08/08 06:44:27;;;;;;;0.95;0.70;;;;;;;28.77;42.79;99310.69;5089599;28;20087;-58
2022/08/08 06:46:53;;;;;;;0.77;0.63;;;;;;;28.69;42.74;99314.88;5089516;28;20082;-58
2022/08/08 06:49:19;;;;;;;0.65;0.60;;;;;;;28.74;42.70;99310.75;5089384;28;20036;-57
2022/08/08 06:51:45;;;;;;;0.93;0.60;;;;;;;28.75;41.75;99315.97;5089410;28;20044;-58
2022/08/08 06:54:11;;;;;;;0.85;0.65;;;;;;;28.77;41.89;99309.88;5089594;28;20048;-58
2022/08/08 06:56:38;;;;;;;1.27;0.70;;;;;;;28.72;42.87;99305.56;5089457;28;20415;-58
2022/08/08 06:59:04;;;;;;;0.90;0.70;;;;;;;28.69;42.80;99308.44;5089346;28;20097;-57
2022/08/08 07:01:37;;;;;;;1.02;0.70;;;;;;;28.69;42.81;99314.06;5089299;28;20534;-58
2022/08/08 07:04:10;;;;;;;1.10;0.80;;;;;;;28.69;42.62;99312.06;5089393;28;20082;-58
2022/08/08 07:06:37;;;;;;;0.60;0.60;;;;;;;28.73;42.45;99312.00;5089143;28;20125;-59
2022/08/08 07:09:10;;;;;;;1.00;0.77;;;;;;;28.78;42.47;99311.47;5089228;28;20040;-57
2022/08/08 07:11:40;;;;;;;0.80;0.60;;;;;;;28.77;41.04;99310.69;5089241;28;20047;-57
2022/08/08 07:14:07;;;;;;;0.90;0.70;;;;;;;28.73;42.19;99309.19;5089119;28;20055;-58
2022/08/08 07:16:57;;;;;;;1.58;0.80;;;;;;;28.67;42.82;99322.16;5088887;28;20036;-57
2022/08/08 07:19:53;;;;;;;0.90;0.80;;;;;;;28.57;42.83;99320.31;5089000;28;20062;-57
2022/08/08 07:22:44;;;;;;;0.73;0.60;;;;;;;28.57;42.79;99326.75;5090009;28;20512;-58
2022/08/08 07:25:11;;;;;;;0.80;0.60;;;;;;;28.67;42.55;99325.78;5092367;28;20059;-58
2022/08/08 07:27:46;;;;;;;1.00;0.70;;;;;;;28.68;41.79;99329.38;5092316;28;20127;-58
2022/08/08 07:30:12;;;;;;;0.95;0.70;;;;;;;28.71;42.16;99328.50;5092582;28;20052;-58
2022/08/08 07:32:39;;;;;;;1.15;0.80;;;;;;;28.67;42.38;99324.97;5092471;28;20076;-58
2022/08/08 07:35:05;;;;;;;1.27;0.60;;;;;;;28.58;42.50;99324.75;5092440;28;20040;-58
2022/08/08 07:37:33;;;;;;;0.73;0.60;;;;;;;28.55;42.76;99319.97;5092694;28;20080;-58
2022/08/08 07:40:00;;;;;;;1.15;0.82;;;;;;;28.57;42.68;99325.94;5092414;28;20044;-58
2022/08/08 07:42:28;;;;;;;1.63;0.65;;;;;;;28.59;42.71;99326.34;5092366;28;20122;-58
2022/08/08 07:44:55;;;;;;;0.98;0.70;;;;;;;28.62;42.48;99328.28;5092477;28;20507;-58
2022/08/08 07:47:20;;;;;;;1.13;0.80;;;;;;;28.70;41.70;99335.38;5092282;28;20036;-57
2022/08/08 07:49:46;;;;;;;0.68;0.50;;;;;;;28.70;41.26;99332.53;5092162;28;20498;-57
2022/08/08 07:52:13;;;;;;;0.98;0.63;;;;;;;28.65;42.03;99336.69;5092247;28;20059;-58
2022/08/08 07:55:00;;;;;;;0.80;0.60;;;;;;;28.59;42.39;99329.16;5092048;28;20539;-58
2022/08/08 07:57:32;;;;;;;0.80;0.70;;;;;;;28.57;42.34;99328.78;5092241;28;20052;-58
2022/08/08 08:00:04;;;;;;;0.85;0.65;;;;;;;28.52;42.51;99339.31;5091982;28;20097;-58
2022/08/08 08:02:37;;;;;;;1.00;0.80;;;;;;;28.58;42.16;99331.19;5092057;28;20064;-58
2022/08/08 08:05:09;;;;;;;1.15;0.80;;;;;;;28.58;42.39;99334.00;5091909;28;20040;-58
2022/08/08 08:07:36;;;;;;;0.70;0.60;;;;;;;28.63;42.07;99329.88;5091868;28;20139;-58
2022/08/08 08:10:03;;;;;;;1.58;0.60;;;;;;;28.67;42.07;99331.41;5092005;28;20109;-58
2022/08/08 08:12:28;;;;;;;0.70;0.60;;;;;;;28.76;41.77;99333.63;5091863;28;20098;-58
2022/08/08 08:15:03;;;;;;;0.77;0.68;;;;;;;28.74;41.62;99334.06;5092061;28;20519;-57
2022/08/08 08:17:28;;;;;;;0.90;0.70;;;;;;;28.78;41.65;99329.16;5091824;28;20040;-57
2022/08/08 08:19:57;;;;;;;0.90;0.70;;;;;;;28.78;41.63;99329.16;5091860;28;20044;-58
2022/08/08 08:22:23;;;;;;;0.88;0.70;;;;;;;28.79;41.44;99324.31;5091584;28;20070;-58
2022/08/08 08:24:49;;;;;;;0.93;0.70;;;;;;;28.79;41.38;99325.16;5091510;28;20400;-58
2022/08/08 08:27:15;;;;;;;0.82;0.65;;;;;;;28.80;41.36;99323.13;5091440;28;20484;-57
2022/08/08 08:29:41;;;;;;;1.55;0.80;;;;;;;28.83;41.36;99313.00;5089561;28;20070;-58
2022/08/08 08:32:07;;;;;;;0.88;0.60;;;;;;;28.82;41.40;99317.06;5091597;28;20503;-58
2022/08/08 08:34:33;;;;;;;0.63;0.52;;;;;;;28.83;41.39;99316.63;5091298;28;20504;-58
2022/08/08 08:36:58;;;;;;;0.73;0.60;;;;;;;28.85;41.33;99313.34;5091631;28;20056;-58
2022/08/08 08:39:24;;;;;;;0.85;0.60;;;;;;;28.84;41.09;99311.78;5091527;28;20057;-57
2022/08/08 08:41:51;;;;;;;0.85;0.60;;;;;;;28.88;41.00;99309.69;5091455;28;20559;-58
2022/08/08 08:44:17;;;;;;;0.90;0.65;;;;;;;28.87;41.06;99303.28;5091323;28;20136;-58
2022/08/08 08:46:43;;;;;;;0.85;0.50;;;;;;;28.86;41.06;99310.09;5091519;28;20083;-58
2022/08/08 08:49:08;;;;;;;0.77;0.60;;;;;;;28.82;41.04;99305.78;5091339;28;20067;-58
2022/08/08 08:51:40;;;;;;;0.70;0.60;;;;;;;28.85;40.74;99300.06;5091529;28;20060;-58
2022/08/08 08:54:06;;;;;;;0.60;0.60;;;;;;;28.91;40.87;99306.81;5091230;28;20040;-59
2022/08/08 08:56:35;;;;;;;0.80;0.60;;;;;;;28.88;40.98;99304.84;5091319;28;20040;-58
2022/08/08 08:59:02;;;;;;;0.88;0.65;;;;;;;28.91;40.89;99298.38;5091223;28;20043;-58
2022/08/08 09:01:31;;;;;;;1.27;0.77;;;;;;;28.88;40.82;99304.84;5091349;28;20052;-58
2022/08/08 09:04:06;;;;;;;1.25;0.75;;;;;;;28.87;40.94;99299.66;5090982;28;20450;-58
2022/08/08 09:06:37;;;;;;;0.60;0.50;;;;;;;28.91;40.57;99294.75;5091031;28;20044;-58
2022/08/08 09:09:16;;;;;;;0.60;0.50;;;;;;;28.91;40.61;99287.13;5091200;28;20079;-57
2022/08/08 09:11:45;;;;;;;0.88;0.60;;;;;;;28.93;40.62;99284.66;5090966;28;20913;-58
2022/08/08 09:14:11;;;;;;;1.08;0.70;;;;;;;28.97;40.47;99284.59;5090964;28;20040;-58
2022/08/08 09:16:37;;;;;;;0.70;0.60;;;;;;;28.95;40.55;99282.22;5091124;28;20154;-58
2022/08/08 09:19:03;;;;;;;0.88;0.65;;;;;;;28.97;40.64;99278.97;5090868;28;20147;-58
2022/08/08 09:21:30;;;;;;;0.50;0.50;;;;;;;28.95;40.50;99276.59;5090741;28;20036;-58
2022/08/08 09:23:56;;;;;;;0.60;0.50;;;;;;;28.92;39.57;99271.00;5090707;28;20514;-58
2022/08/08 09:26:34;;;;;;;0.75;0.57;;;;;;;28.84;40.90;99267.53;5091043;28;20131;-58
2022/08/08 09:29:00;;;;;;;0.82;0.60;;;;;;;28.83;40.84;99270.78;5090936;28;20076;-57
2022/08/08 09:31:32;;;;;;;0.77;0.70;;;;;;;28.68;41.22;99267.47;5090692;28;20047;-58
2022/08/08 09:33:59;;;;;;;0.93;0.60;;;;;;;28.68;41.18;99270.28;5090735;28;20048;-58
2022/08/08 09:36:27;;;;;;;0.80;0.70;;;;;;;28.68;41.21;99265.44;5090578;28;20580;-59
2022/08/08 09:38:58;;;;;;;0.90;0.60;;;;;;;28.72;40.85;99259.72;5090647;28;20526;-58
2022/08/08 09:41:37;;;;;;;0.68;0.60;;;;;;;28.75;40.36;99267.31;5090842;28;20047;-57
2022/08/08 09:44:22;;;;;;;1.17;0.80;;;;;;;28.74;41.45;99268.53;5090305;28;20040;-58
2022/08/08 09:46:49;;;;;;;1.05;0.70;;;;;;;28.61;41.64;99261.97;5090185;28;20135;-58
2022/08/08 09:49:17;;;;;;;0.70;0.60;;;;;;;28.64;41.30;99264.69;5090442;28;20073;-58
2022/08/08 09:51:48;;;;;;;0.70;0.60;;;;;;;28.67;41.38;99263.84;5090440;28;20092;-58
2022/08/08 09:54:18;;;;;;;0.88;0.65;;;;;;;28.74;41.32;99260.09;5090204;28;20454;-59
2022/08/08 09:56:46;;;;;;;0.68;0.50;;;;;;;28.74;40.14;99257.28;5090053;28;20048;-58
2022/08/08 09:59:24;;;;;;;0.55;0.50;;;;;;;28.70;40.77;99267.81;5090323;28;20044;-58
2022/08/08 10:01:51;;;;;;;0.77;0.50;;;;;;;28.66;41.26;99261.47;5090240;28;20051;-58
2022/08/08 10:04:21;;;;;;;0.90;0.70;;;;;;;28.64;41.21;99253.44;5090106;28;20048;-58
2022/08/08 10:06:47;;;;;;;0.80;0.60;;;;;;;28.66;40.92;99264.28;5090008;28;20051;-58
2022/08/08 10:09:13;;;;;;;1.08;0.70;;;;;;;28.66;41.20;99259.44;5090225;28;20095;-58
2022/08/08 10:11:39;;;;;;;0.68;0.60;;;;;;;28.69;40.99;99255.75;5090136;28;20091;-58
2022/08/08 10:14:06;;;;;;;0.60;0.50;;;;;;;28.76;41.00;99255.63;5090172;28;20096;-58
2022/08/08 10:16:41;;;;;;;1.08;0.70;;;;;;;28.78;40.91;99255.16;5090008;28;20051;-58
2022/08/08 10:19:10;;;;;;;0.90;0.65;;;;;;;28.79;40.57;99242.69;5090135;28;20051;-58
2022/08/08 10:21:37;;;;;;;0.80;0.55;;;;;;;28.77;39.90;99247.97;5089845;28;20079;-58
2022/08/08 10:24:03;;;;;;;0.60;0.50;;;;;;;28.76;40.89;99232.31;5071657;28;20419;-58
2022/08/08 10:26:30;;;;;;;1.23;0.60;;;;;;;28.72;41.27;99240.00;5089809;28;20415;-58
2022/08/08 10:29:02;;;;;;;0.60;0.55;;;;;;;28.69;41.01;99235.25;5089679;28;20044;-59
2022/08/08 10:34:15;;;;;;;1.25;0.63;;;;;;;28.76;41.11;99235.13;5090161;28;20100;-59
2022/08/08 10:36:43;;;;;;;0.73;0.52;;;;;;;28.74;40.37;99226.31;5090030;28;20130;-59
2022/08/08 10:39:10;;;;;;;0.95;0.60;;;;;;;28.72;40.31;99229.56;5089778;28;20408;-58
2022/08/08 10:41:37;;;;;;;0.80;0.50;;;;;;;28.71;40.78;99219.53;5089518;28;20458;-58
2022/08/08 10:44:04;;;;;;;0.63;0.55;;;;;;;28.64;41.05;99222.47;5089502;28;20114;-58
2022/08/08 10:46:30;;;;;;;0.88;0.70;;;;;;;28.68;41.20;99219.59;5089517;28;20466;-58
2022/08/08 10:48:57;;;;;;;1.13;0.70;;;;;;;28.67;41.21;99216.00;5089665;28;20044;-58
2022/08/08 10:51:34;;;;;;;1.52;0.63;;;;;;;28.70;40.88;99208.69;5089560;28;20060;-58
2022/08/08 10:54:00;;;;;;;0.70;0.50;;;;;;;28.72;40.73;99214.69;5089621;28;20102;-59
2022/08/08 10:56:32;;;;;;;0.70;0.50;;;;;;;28.76;40.89;99206.97;5089415;28;20503;-57
2022/08/08 10:59:03;;;;;;;0.60;0.50;;;;;;;28.81;40.71;99214.13;5089572;28;20040;-58
2022/08/08 11:01:30;;;;;;;0.60;0.50;;;;;;;28.83;40.40;99211.66;5089443;28;20056;-58
2022/08/08 11:03:59;;;;;;;0.80;0.60;;;;;;;28.82;40.14;99205.22;5089311;28;20368;-58
2022/08/08 11:06:35;;;;;;;1.13;0.70;;;;;;;28.77;40.15;99197.28;5089394;28;20048;-57
2022/08/08 11:09:03;;;;;;;0.93;0.55;;;;;;;28.74;40.78;99193.34;5089528;28;20055;-58
2022/08/08 11:11:43;;;;;;;0.60;0.50;;;;;;;28.69;40.85;99190.22;5089326;28;20499;-58
2022/08/08 11:14:10;;;;;;;0.77;0.60;;;;;;;28.70;40.86;99191.81;5089204;28;20048;-59
2022/08/08 11:16:38;;;;;;;0.88;0.70;;;;;;;28.74;40.79;99192.53;5089148;28;20048;-58
2022/08/08 11:19:04;;;;;;;0.80;0.40;;;;;;;28.78;40.72;99181.97;5089186;28;20574;-58
2022/08/08 11:21:35;;;;;;;0.77;0.60;;;;;;;28.75;39.64;99177.25;5089122;28;20407;-58
2022/08/08 11:24:04;;;;;;;0.45;0.40;;;;;;;28.71;40.40;99174.47;5089240;28;20047;-58
2022/08/08 11:26:32;;;;;;;0.60;0.50;;;;;;;28.67;40.62;99175.81;5089171;28;20045;-59
2022/08/08 11:29:04;;;;;;;0.60;0.50;;;;;;;28.66;40.63;99172.19;5089180;28;20067;-58
2022/08/08 11:31:37;;;;;;;0.80;0.55;;;;;;;28.67;40.38;99181.44;5089121;28;20126;-58
2022/08/08 11:34:04;;;;;;;0.82;0.60;;;;;;;28.66;40.22;99171.41;5089238;28;20052;-58
2022/08/08 11:36:35;;;;;;;0.80;0.70;;;;;;;28.69;40.19;99173.34;5089187;28;20044;-58
2022/08/08 11:39:02;;;;;;;0.73;0.52;;;;;;;28.73;40.29;99180.50;5089068;28;20044;-58
2022/08/08 11:41:28;;;;;;;1.08;0.70;;;;;;;28.75;39.91;99174.41;5070693;28;20698;-59
2022/08/08 11:43:54;;;;;;;0.70;0.55;;;;;;;28.78;39.71;99165.09;5088719;28;20048;-59
2022/08/08 11:46:24;;;;;;;1.00;0.60;;;;;;;28.78;40.01;99162.28;5089031;28;20048;-58
2022/08/08 11:48:51;;;;;;;0.90;0.60;;;;;;;28.82;39.62;99170.66;5088698;28;20051;-58
2022/08/08 11:51:18;;;;;;;1.00;0.70;;;;;;;28.83;39.50;99172.25;5088519;28;20071;-59
2022/08/08 11:53:45;;;;;;;0.80;0.60;;;;;;;28.86;39.45;99162.91;5088790;28;20496;-59
2022/08/08 11:56:19;;;;;;;1.05;0.50;;;;;;;28.83;39.65;99163.78;5088780;28;20116;-57
2022/08/08 11:58:44;;;;;;;1.00;0.73;;;;;;;28.85;39.44;99158.50;5086661;28;20051;-57
2022/08/08 12:01:10;;;;;;;0.77;0.60;;;;;;;28.83;39.32;99155.34;5088606;28;20052;-58
2022/08/08 12:03:47;;;;;;;0.80;0.68;;;;;;;28.82;39.31;99154.56;5088490;28;20032;-58
2022/08/08 12:06:14;;;;;;;0.73;0.65;;;;;;;28.88;39.23;99152.81;5088537;28;20056;-59
2022/08/08 12:08:40;;;;;;;0.73;0.50;;;;;;;28.90;39.19;99155.97;5090111;28;20047;-59
2022/08/08 12:11:12;;;;;;;1.08;0.60;;;;;;;28.88;38.87;99147.19;5092052;28;20051;-58